createdAt,value
2022-09-26T00:03:43.867Z,379.77
2022-09-26T00:07:42.806Z,379.77
2022-09-26T00:11:42.634Z,379.77
2022-09-26T00:15:43.417Z,379.77
2022-09-26T00:19:43.252Z,379.77
2022-09-26T00:23:43.085Z,379.77
2022-09-26T00:27:43.293Z,379.77
2022-09-26T00:31:43.484Z,379.77
2022-09-26T00:35:43.300Z,379.77
2022-09-26T00:39:42.842Z,379.77
2022-09-26T00:43:42.830Z,379.77
2022-09-26T00:47:44.068Z,379.77
2022-09-26T00:51:43.343Z,379.77
2022-09-26T00:55:42.844Z,379.77
2022-09-26T00:59:42.697Z,379.77
2022-09-26T01:03:44.226Z,379.77
2022-09-26T01:07:43.280Z,379.77
2022-09-26T01:11:49.960Z,379.77
2022-09-26T01:15:42.880Z,379.77
2022-09-26T01:19:42.513Z,379.77
2022-09-26T01:23:42.486Z,379.77
2022-09-26T01:27:42.649Z,379.77
2022-09-26T01:31:43.683Z,379.77
2022-09-26T01:35:43.332Z,379.77
2022-09-26T01:39:43.205Z,379.77
2022-09-26T01:43:43.381Z,379.77
2022-09-26T01:47:43.072Z,379.77
2022-09-26T01:51:42.581Z,379.77
2022-09-26T01:55:42.842Z,36
2022-09-26T01:59:42.750Z,5.41
2022-09-26T02:03:43.843Z,5.41
2022-09-26T02:07:42.609Z,5.41
2022-09-26T02:11:43.180Z,5.41
2022-09-26T02:15:43.023Z,5.41
2022-09-26T02:19:43.356Z,5.41
2022-09-26T02:23:42.659Z,5.41
2022-09-26T02:27:42.804Z,5.41
2022-09-26T02:31:43.100Z,5.41
2022-09-26T02:35:42.782Z,5.41
2022-09-26T02:39:43.423Z,5.41
2022-09-26T02:43:42.505Z,5.41
2022-09-26T02:47:42.981Z,5.41
2022-09-26T02:51:43.336Z,5.41
2022-09-26T02:55:42.840Z,5.41
2022-09-26T02:59:43.192Z,5.41
2022-09-26T03:03:42.732Z,5.41
2022-09-26T03:07:43.216Z,17.7
2022-09-26T03:11:42.793Z,17.7
2022-09-26T03:15:43.929Z,17.7
2022-09-26T03:19:43.254Z,17.7
2022-09-26T03:23:42.938Z,17.7
2022-09-26T03:27:42.577Z,17.7
2022-09-26T03:31:43.123Z,17.7
2022-09-26T03:35:42.571Z,17.7
2022-09-26T03:39:44.669Z,17.7
2022-09-26T03:43:42.756Z,17.7
2022-09-26T03:47:47.650Z,17.7
2022-09-26T03:51:42.924Z,17.7
2022-09-26T03:55:42.812Z,17.7
2022-09-26T03:59:43.143Z,17.7
2022-09-26T04:03:47.782Z,17.7
2022-09-26T04:07:43.179Z,17.7
2022-09-26T04:11:42.965Z,17.7
2022-09-26T04:15:42.916Z,17.7
2022-09-26T04:19:43.114Z,17.7
2022-09-26T04:23:43.486Z,17.7
2022-09-26T04:27:43.417Z,17.7
2022-09-26T04:31:44.041Z,17.7
2022-09-26T04:35:46.304Z,17.7
2022-09-26T04:39:43.523Z,17.7
2022-09-26T04:43:42.721Z,17.7
2022-09-26T04:47:50.029Z,17.7
2022-09-26T04:51:43.226Z,17.7
2022-09-26T04:55:43.519Z,17.7
2022-09-26T04:59:42.577Z,17.7
2022-09-26T05:03:43.476Z,17.7
2022-09-26T05:07:43.108Z,17.7
2022-09-26T05:11:43.484Z,17.7
2022-09-26T05:15:43.090Z,31.76
2022-09-26T05:19:43.572Z,31.76
2022-09-26T05:23:45.053Z,31.76
2022-09-26T05:27:42.854Z,31.76
2022-09-26T05:31:43.414Z,31.76
2022-09-26T05:35:49.750Z,31.76
2022-09-26T05:39:43.305Z,31.76
2022-09-26T05:43:43.344Z,31.76
2022-09-26T05:47:43.171Z,31.76
2022-09-26T05:51:42.816Z,31.76
2022-09-26T05:55:42.741Z,31.76
2022-09-26T05:59:42.814Z,31.76
2022-09-26T06:03:50.195Z,31.76
2022-09-26T06:07:42.771Z,31.76
2022-09-26T06:11:42.595Z,31.76
2022-09-26T06:15:42.693Z,31.76
2022-09-26T06:19:45.774Z,31.76
2022-09-26T06:23:43.113Z,31.76
2022-09-26T06:27:42.675Z,31.76
2022-09-26T06:31:43.577Z,31.76
2022-09-26T06:35:43.358Z,31.76
2022-09-26T06:39:42.765Z,31.76
2022-09-26T06:43:42.622Z,31.76
2022-09-26T06:47:43.502Z,31.76
2022-09-26T06:51:43.370Z,31.76
2022-09-26T06:55:42.963Z,31.76
2022-09-26T06:59:42.967Z,31.76
2022-09-26T07:03:45.913Z,31.76
2022-09-26T07:07:43.535Z,31.76
2022-09-26T07:12:46.437Z,31.76
2022-09-26T07:15:49.911Z,31.76
2022-09-26T07:19:43.383Z,31.76
2022-09-26T07:23:42.910Z,31.76
2022-09-26T07:27:43.133Z,31.76
2022-09-26T07:31:43.755Z,31.76
2022-09-26T07:35:48.401Z,31.76
2022-09-26T07:39:42.925Z,31.76
2022-09-26T07:45:56.425Z,31.76
2022-09-26T07:47:43.134Z,31.76
2022-09-26T07:49:42.391Z,31.76
2022-09-26T07:51:43.291Z,31.76
2022-09-26T07:53:43.365Z,31.76
2022-09-26T07:55:43.193Z,31.76
2022-09-26T07:57:42.704Z,31.76
2022-09-26T07:59:42.880Z,31.76
2022-09-26T08:01:47.045Z,31.76
2022-09-26T08:03:45.011Z,31.76
2022-09-26T08:05:46.300Z,31.76
2022-09-26T08:07:42.856Z,31.76
2022-09-26T08:09:43.303Z,31.76
2022-09-26T08:11:48.918Z,31.76
2022-09-26T08:13:43.244Z,31.76
2022-09-26T08:15:43.507Z,31.76
2022-09-26T08:17:48.072Z,31.76
2022-09-26T08:19:42.914Z,31.76
2022-09-26T08:21:50.082Z,21473.9
2022-09-26T08:23:42.607Z,21473.9
2022-09-26T08:25:42.979Z,21473.9
2022-09-26T08:27:50.815Z,2566.22
2022-09-26T08:29:42.872Z,2566.22
2022-09-26T08:31:43.867Z,2566.22
2022-09-26T08:33:42.972Z,1233.8
2022-09-26T08:35:44.809Z,1233.8
2022-09-26T08:37:42.863Z,1233.8
2022-09-26T08:39:44.944Z,2.49
2022-09-26T08:41:43.871Z,2.49
2022-09-26T08:43:42.776Z,2.49
2022-09-26T08:45:47.353Z,742.42
2022-09-26T08:47:43.343Z,742.42
2022-09-26T08:49:43.197Z,742.42
2022-09-26T08:51:47.987Z,1.69
2022-09-26T08:53:43.047Z,1.69
2022-09-26T08:55:43.021Z,1.69
2022-09-26T08:57:42.876Z,559.41
2022-09-26T08:59:48.199Z,559.41
2022-09-26T09:01:46.245Z,559.41
2022-09-26T09:03:44.132Z,491.76
2022-09-26T09:05:50.089Z,491.76
2022-09-26T09:07:44.466Z,491.76
2022-09-26T09:09:43.709Z,491.76
2022-09-26T09:11:44.138Z,491.76
2022-09-26T09:13:49.212Z,491.76
2022-09-26T09:16:12.238Z,491.76
2022-09-26T09:17:43.383Z,491.76
2022-09-26T09:19:44.978Z,491.76
2022-09-26T09:21:43.672Z,491.76
2022-09-26T09:23:43.822Z,491.76
2022-09-26T09:25:43.287Z,491.76
2022-09-26T09:29:22.031Z,491.76
2022-09-26T09:29:56.015Z,491.76
2022-09-26T09:31:48.639Z,491.76
2022-09-26T09:33:44.277Z,491.76
2022-09-26T09:35:49.971Z,491.76
2022-09-26T09:37:44.416Z,491.76
2022-09-26T09:39:43.951Z,491.76
2022-09-26T09:41:43.688Z,491.76
2022-09-26T09:43:43.547Z,491.76
2022-09-26T09:45:45.181Z,491.76
2022-09-26T09:47:45.981Z,491.76
2022-09-26T09:49:43.913Z,491.76
2022-09-26T09:51:50.496Z,491.76
2022-09-26T09:53:43.746Z,491.76
2022-09-26T09:55:43.485Z,491.76
2022-09-26T09:57:44.399Z,491.76
2022-09-26T09:59:43.169Z,491.76
2022-09-26T10:01:47.998Z,491.76
2022-09-26T10:03:43.957Z,491.76
2022-09-26T10:05:45.404Z,491.76
2022-09-26T10:08:20.329Z,491.76
2022-09-26T10:10:21.166Z,6215.33
2022-09-26T10:11:47.043Z,6215.33
2022-09-26T10:13:44.599Z,6215.33
2022-09-26T10:15:43.967Z,3.86
2022-09-26T10:17:56.040Z,3.86
2022-09-26T10:20:12.203Z,3.86
2022-09-26T10:21:44.896Z,811.95
2022-09-26T10:23:43.958Z,811.95
2022-09-26T10:25:45.622Z,811.95
2022-09-26T10:27:51.823Z,1.69
2022-09-26T10:29:44.824Z,1.69
2022-09-26T10:31:44.688Z,1.69
2022-09-26T10:33:47.045Z,506.27
2022-09-26T10:35:45.105Z,506.27
2022-09-26T10:37:47.254Z,506.27
2022-09-26T10:39:44.787Z,456.74
2022-09-26T10:41:45.486Z,456.74
2022-09-26T10:43:52.066Z,456.74
2022-09-26T10:45:43.868Z,1.15
2022-09-26T10:47:45.967Z,1.15
2022-09-26T10:49:43.412Z,1.15
2022-09-26T10:51:45.801Z,430
2022-09-26T10:53:51.526Z,430
2022-09-26T10:55:46.947Z,430
2022-09-26T10:57:45.429Z,398.11
2022-09-26T10:59:46.248Z,398.11
2022-09-26T11:01:48.693Z,398.11
2022-09-26T11:03:47.351Z,398.11
2022-09-26T11:05:46.234Z,398.11
2022-09-26T11:07:45.250Z,398.11
2022-09-26T11:09:45.450Z,410.66
2022-09-26T11:11:44.687Z,410.66
2022-09-26T11:13:46.670Z,410.66
2022-09-26T11:15:48.862Z,463.6
2022-09-26T11:17:47.135Z,463.6
2022-09-26T11:19:49.972Z,463.6
2022-09-26T11:22:07.436Z,423.49
2022-09-26T11:23:49.456Z,423.49
2022-09-26T11:25:52.317Z,423.49
2022-09-26T11:27:44.425Z,1.09
2022-09-26T11:29:42.905Z,1.09
2022-09-26T11:31:43.407Z,1.09
2022-09-26T11:33:49.610Z,1.08
2022-09-26T11:35:46.779Z,1.08
2022-09-26T11:37:44.621Z,1.08
2022-09-26T11:39:43.019Z,350.49
2022-09-26T11:41:50.730Z,350.49
2022-09-26T11:43:51.359Z,350.49
2022-09-26T11:45:57.820Z,0.93
2022-09-26T11:47:50.387Z,0.93
2022-09-26T11:49:48.643Z,0.93
2022-09-26T11:51:53.972Z,0.96
2022-09-26T11:53:47.836Z,0.96
2022-09-26T11:55:48.650Z,0.96
2022-09-26T11:57:46.494Z,0.98
2022-09-26T11:59:46.221Z,0.98
2022-09-26T12:01:45.878Z,0.98
2022-09-26T12:03:45.161Z,0.98
2022-09-26T12:05:49.478Z,0.98
2022-09-26T12:07:58.624Z,0.98
2022-09-26T12:09:42.908Z,0.95
2022-09-26T12:11:43.179Z,0.95
2022-09-26T12:13:48.102Z,0.95
2022-09-26T12:15:42.929Z,0.86
2022-09-26T12:17:43.619Z,0.86
2022-09-26T12:19:49.970Z,0.86
2022-09-26T12:21:42.742Z,0.87
2022-09-26T12:23:43.242Z,0.87
2022-09-26T12:25:43.126Z,0.87
2022-09-26T12:27:42.817Z,333.67
2022-09-26T12:29:43.309Z,333.67
2022-09-26T12:31:43.678Z,333.67
2022-09-26T12:33:43.209Z,344.82
2022-09-26T12:35:42.886Z,344.82
2022-09-26T12:37:42.429Z,344.82
2022-09-26T12:39:42.987Z,328.19
2022-09-26T12:41:43.347Z,328.19
2022-09-26T12:43:42.629Z,328.19
2022-09-26T12:45:43.027Z,291.5
2022-09-26T12:47:44.030Z,291.5
2022-09-26T12:49:42.648Z,291.5
2022-09-26T12:51:42.878Z,0.79
2022-09-26T12:53:46.289Z,0.79
2022-09-26T12:55:43.478Z,0.79
2022-09-26T12:57:42.554Z,291.5
2022-09-26T12:59:49.144Z,291.5
2022-09-26T13:01:49.541Z,291.5
2022-09-26T13:03:43.984Z,0.8
2022-09-26T13:05:42.796Z,0.8
2022-09-26T13:08:16.463Z,0.8
2022-09-26T13:09:42.868Z,0.8
2022-09-26T13:11:44.205Z,0.8
2022-09-26T13:13:43.328Z,0.8
2022-09-26T13:15:43.057Z,0.8
2022-09-26T13:17:42.857Z,0.8
2022-09-26T13:19:45.653Z,0.8
2022-09-26T13:21:42.606Z,0.8
2022-09-26T13:23:43.003Z,0.8
2022-09-26T13:25:47.199Z,0.8
2022-09-26T13:27:43.309Z,0.8
2022-09-26T13:30:10.085Z,0.8
2022-09-26T13:31:44.232Z,0.8
2022-09-26T13:33:43.036Z,0.8
2022-09-26T13:35:42.555Z,0.8
2022-09-26T13:37:43.034Z,0.8
2022-09-26T13:39:49.587Z,0.8
2022-09-26T13:41:44.236Z,0.8
2022-09-26T13:43:47.951Z,0.8
2022-09-26T13:45:42.729Z,0.8
2022-09-26T13:47:44.000Z,0.8
2022-09-26T13:49:42.982Z,0.8
2022-09-26T13:51:48.598Z,0.8
2022-09-26T13:53:43.398Z,0.8
2022-09-26T13:55:43.073Z,0.8
2022-09-26T13:57:42.726Z,0.8
2022-09-26T13:59:43.355Z,0.8
2022-09-26T14:01:46.309Z,0.8
2022-09-26T14:03:49.519Z,0.8
2022-09-26T14:05:42.713Z,0.8
2022-09-26T14:07:43.152Z,0.8
2022-09-26T14:09:46.489Z,0.8
2022-09-26T14:11:43.040Z,0.8
2022-09-26T14:13:43.218Z,0.8
2022-09-26T14:15:43.031Z,17.7
2022-09-26T14:17:43.403Z,5899.86
2022-09-26T14:19:43.159Z,5899.86
2022-09-26T14:21:43.542Z,3.77
2022-09-26T14:23:42.473Z,1247.87
2022-09-26T14:25:42.774Z,1247.87
2022-09-26T14:27:43.053Z,713.98
2022-09-26T14:29:48.633Z,1.83
2022-09-26T14:31:43.192Z,1.83
2022-09-26T14:33:43.232Z,559.41
2022-09-26T14:35:42.808Z,551.59
2022-09-26T14:37:43.062Z,551.59
2022-09-26T14:39:42.724Z,1.29
2022-09-26T14:41:44.207Z,1.25
2022-09-26T14:43:43.010Z,1.25
2022-09-26T14:45:45.107Z,1.11
2022-09-26T14:47:43.720Z,404.35
2022-09-26T14:49:42.940Z,404.35
2022-09-26T14:51:42.619Z,1.13
2022-09-26T14:53:42.803Z,1.11
2022-09-26T14:55:42.524Z,1.11
2022-09-26T14:57:43.809Z,1.04
2022-09-26T14:59:42.919Z,385.82
2022-09-26T15:01:46.857Z,385.82
2022-09-26T15:03:46.310Z,0.99
2022-09-26T15:05:43.408Z,0.99
2022-09-26T15:07:42.728Z,0.99
2022-09-26T15:09:46.860Z,0.95
2022-09-26T15:11:43.173Z,0.95
2022-09-26T15:13:43.209Z,0.95
2022-09-26T15:15:50.051Z,339.22
2022-09-26T15:17:43.509Z,339.22
2022-09-26T15:19:42.749Z,339.22
2022-09-26T15:21:49.325Z,339.22
2022-09-26T15:23:42.884Z,0.92
2022-09-26T15:25:44.873Z,0.92
2022-09-26T15:27:46.072Z,0.86
2022-09-26T15:29:43.316Z,317.41
2022-09-26T15:31:44.112Z,317.41
2022-09-26T15:33:49.245Z,322.77
2022-09-26T15:35:43.471Z,0.87
2022-09-26T15:37:43.174Z,0.87
2022-09-26T15:39:43.896Z,0.92
2022-09-26T15:41:43.831Z,0.92
2022-09-26T15:43:42.583Z,0.92
2022-09-26T15:45:42.939Z,0.87
2022-09-26T15:47:50.721Z,0.87
2022-09-26T15:49:42.907Z,0.87
2022-09-26T15:51:42.977Z,0.86
2022-09-26T15:53:42.981Z,0.87
2022-09-26T15:55:43.577Z,0.87
2022-09-26T15:57:42.548Z,0.83
2022-09-26T15:59:43.076Z,0.83
2022-09-26T16:01:46.325Z,0.83
2022-09-26T16:03:43.914Z,301.68
2022-09-26T16:05:46.898Z,301.68
2022-09-26T16:07:42.744Z,301.68
2022-09-26T16:09:42.908Z,296.56
2022-09-26T16:11:43.163Z,0.8
2022-09-26T16:13:45.552Z,0.8
2022-09-26T16:15:42.748Z,291.5
2022-09-26T16:17:49.202Z,0.79
2022-09-26T16:19:42.891Z,0.79
2022-09-26T16:21:43.022Z,296.56
2022-09-26T16:23:49.633Z,296.56
2022-09-26T16:25:42.856Z,296.56
2022-09-26T16:27:42.542Z,0.77
2022-09-26T16:29:43.347Z,291.5
2022-09-26T16:31:47.747Z,291.5
2022-09-26T16:33:43.026Z,286.49
2022-09-26T16:35:43.196Z,0.77
2022-09-26T16:37:42.890Z,0.77
2022-09-26T16:39:43.490Z,276.64
2022-09-26T16:42:14.310Z,276.64
2022-09-26T16:43:44.653Z,276.64
2022-09-26T16:45:56.665Z,271.81
2022-09-26T16:47:43.855Z,0.73
2022-09-26T16:49:42.541Z,0.73
2022-09-26T16:51:48.807Z,267.02
2022-09-26T16:53:43.075Z,267.02
2022-09-26T16:55:43.731Z,267.02
2022-09-26T16:57:42.529Z,262.3
2022-09-26T16:59:44.918Z,262.3
2022-09-26T17:01:49.653Z,262.3
2022-09-26T17:03:43.788Z,253.01
2022-09-26T17:05:43.508Z,257.63
2022-09-26T17:07:43.731Z,257.63
2022-09-26T17:09:43.471Z,0.68
2022-09-26T17:11:43.627Z,0.67
2022-09-26T17:13:43.067Z,0.67
2022-09-26T17:15:48.555Z,248.45
2022-09-26T17:17:43.504Z,248.45
2022-09-26T17:19:43.384Z,248.45
2022-09-26T17:21:43.393Z,248.45
2022-09-26T17:24:12.965Z,0.67
2022-09-26T17:25:43.113Z,0.67
2022-09-26T17:27:43.063Z,0.67
2022-09-26T17:29:43.116Z,248.45
2022-09-26T17:31:44.321Z,248.45
2022-09-26T17:33:48.859Z,0.66
2022-09-26T17:35:43.271Z,0.66
2022-09-26T17:37:42.571Z,0.66
2022-09-26T17:39:46.532Z,243.95
2022-09-26T17:41:43.793Z,243.95
2022-09-26T17:43:42.600Z,243.95
2022-09-26T17:45:43.403Z,239.5
2022-09-26T17:47:46.401Z,243.95
2022-09-26T17:49:42.953Z,243.95
2022-09-26T17:51:43.013Z,0.65
2022-09-26T17:53:47.509Z,239.5
2022-09-26T17:55:43.111Z,239.5
2022-09-26T17:57:42.899Z,239.5
2022-09-26T17:59:42.918Z,239.5
2022-09-26T18:01:46.198Z,239.5
2022-09-26T18:03:44.256Z,0.65
2022-09-26T18:05:42.793Z,239.5
2022-09-26T18:07:42.881Z,239.5
2022-09-26T18:09:43.145Z,235.1
2022-09-26T18:11:43.195Z,0.65
2022-09-26T18:13:47.349Z,0.65
2022-09-26T18:15:43.206Z,0.58
2022-09-26T18:17:43.751Z,209.81
2022-09-26T18:19:43.179Z,209.81
2022-09-26T18:21:42.659Z,0.48
2022-09-26T18:23:43.110Z,178.92
2022-09-26T18:25:49.334Z,178.92
2022-09-26T18:27:43.409Z,168.15
2022-09-26T18:29:43.516Z,168.15
2022-09-26T18:31:44.125Z,168.15
2022-09-26T18:33:49.184Z,0.44
2022-09-26T18:35:43.227Z,0.44
2022-09-26T18:37:43.080Z,0.44
2022-09-26T18:39:43.378Z,157.79
2022-09-26T18:41:46.155Z,0.43
2022-09-26T18:43:42.716Z,0.43
2022-09-26T18:45:43.362Z,154.43
2022-09-26T18:47:47.070Z,154.43
2022-09-26T18:49:42.606Z,154.43
2022-09-26T18:51:42.814Z,151.12
2022-09-26T18:53:43.026Z,151.12
2022-09-26T18:55:43.277Z,151.12
2022-09-26T18:57:43.223Z,147.85
2022-09-26T18:59:42.685Z,0.4
2022-09-26T19:01:46.676Z,0.4
2022-09-26T19:03:44.018Z,0.4
2022-09-26T19:05:42.842Z,0.4
2022-09-26T19:07:44.348Z,0.4
2022-09-26T19:09:43.363Z,0.4
2022-09-26T19:11:42.947Z,0.4
2022-09-26T19:13:49.204Z,0.4
2022-09-26T19:15:43.033Z,147.85
2022-09-26T19:17:43.462Z,147.85
2022-09-26T19:19:43.101Z,147.85
2022-09-26T19:21:42.815Z,151.12
2022-09-26T19:23:42.948Z,147.85
2022-09-26T19:25:43.401Z,147.85
2022-09-26T19:27:42.553Z,151.12
2022-09-26T19:29:46.020Z,0.41
2022-09-26T19:31:43.071Z,0.41
2022-09-26T19:33:43.230Z,154.43
2022-09-26T19:35:42.891Z,0.42
2022-09-26T19:37:42.955Z,0.42
2022-09-26T19:39:43.349Z,157.79
2022-09-26T19:41:45.717Z,0.43
2022-09-26T19:43:43.113Z,0.43
2022-09-26T19:45:43.760Z,0.44
2022-09-26T19:47:44.008Z,0.44
2022-09-26T19:49:46.886Z,0.44
2022-09-26T19:51:43.175Z,0.45
2022-09-26T19:53:42.887Z,0.45
2022-09-26T19:55:48.229Z,0.45
2022-09-26T19:57:42.748Z,0.45
2022-09-26T19:59:49.239Z,168.15
2022-09-26T20:01:47.648Z,168.15
2022-09-26T20:03:43.369Z,0.46
2022-09-26T20:05:42.913Z,171.69
2022-09-26T20:07:42.581Z,171.69
2022-09-26T20:09:46.934Z,0.46
2022-09-26T20:11:42.610Z,175.28
2022-09-26T20:13:43.280Z,175.28
2022-09-26T20:15:42.956Z,0.47
2022-09-26T20:17:43.944Z,0.48
2022-09-26T20:19:42.750Z,0.48
2022-09-26T20:21:42.524Z,0.48
2022-09-26T20:23:42.724Z,0.49
2022-09-26T20:25:49.238Z,0.49
2022-09-26T20:27:42.840Z,0.49
2022-09-26T20:29:42.501Z,182.61
2022-09-26T20:31:43.781Z,182.61
2022-09-26T20:33:45.740Z,0.5
2022-09-26T20:35:47.015Z,0.5
2022-09-26T20:37:44.709Z,0.5
2022-09-26T20:39:43.143Z,0.51
2022-09-26T20:41:47.470Z,0.51
2022-09-26T20:43:43.397Z,0.51
2022-09-26T20:45:42.755Z,193.97
2022-09-26T20:47:43.932Z,0.52
2022-09-26T20:49:43.162Z,0.52
2022-09-26T20:51:43.095Z,0.52
2022-09-26T20:53:43.094Z,0.52
2022-09-26T20:55:44.246Z,0.52
2022-09-26T20:57:42.944Z,197.85
2022-09-26T20:59:42.981Z,0.53
2022-09-26T21:01:45.567Z,0.53
2022-09-26T21:03:44.634Z,0.53
2022-09-26T21:05:42.774Z,0.53
2022-09-26T21:07:43.029Z,0.53
2022-09-26T21:09:43.329Z,197.85
2022-09-26T21:11:43.264Z,197.85
2022-09-26T21:13:42.701Z,197.85
2022-09-26T21:15:43.164Z,0.53
2022-09-26T21:17:43.636Z,0.53
2022-09-26T21:19:43.239Z,0.53
2022-09-26T21:21:42.848Z,201.79
2022-09-26T21:23:44.313Z,201.79
2022-09-26T21:25:44.250Z,201.79
2022-09-26T21:27:43.392Z,0.56
2022-09-26T21:29:43.426Z,205.77
2022-09-26T21:31:43.656Z,205.77
2022-09-26T21:33:43.078Z,205.77
2022-09-26T21:35:43.453Z,0.56
2022-09-26T21:37:43.191Z,0.56
2022-09-26T21:39:42.751Z,0.57
2022-09-26T21:41:43.533Z,0.57
2022-09-26T21:43:42.821Z,0.57
2022-09-26T21:45:50.115Z,0.58
2022-09-26T21:47:43.503Z,0.58
2022-09-26T21:49:43.247Z,0.58
2022-09-26T21:51:43.583Z,218.03
2022-09-26T21:53:43.353Z,218.03
2022-09-26T21:55:43.287Z,218.03
2022-09-26T21:57:48.836Z,222.22
2022-09-26T21:59:42.897Z,0.6
2022-09-26T22:01:43.516Z,0.6
2022-09-26T22:03:43.780Z,0.61
2022-09-26T22:05:42.933Z,0.61
2022-09-26T22:07:48.328Z,0.61
2022-09-26T22:09:42.895Z,226.46
2022-09-26T22:11:42.919Z,0.62
2022-09-26T22:13:43.485Z,0.62
2022-09-26T22:15:44.028Z,0.62
2022-09-26T22:17:43.546Z,230.75
2022-09-26T22:19:43.597Z,230.75
2022-09-26T22:21:42.515Z,0.62
2022-09-26T22:23:43.086Z,0.64
2022-09-26T22:25:43.119Z,0.64
2022-09-26T22:27:43.048Z,0.64
2022-09-26T22:29:43.010Z,235.1
2022-09-26T22:31:43.662Z,235.1
2022-09-26T22:33:42.450Z,239.5
2022-09-26T22:35:42.949Z,0.65
2022-09-26T22:37:43.153Z,0.65
2022-09-26T22:39:43.395Z,239.5
2022-09-26T22:41:43.939Z,239.5
2022-09-26T22:43:43.194Z,239.5
2022-09-26T22:45:43.360Z,243.95
2022-09-26T22:47:43.449Z,243.95
2022-09-26T22:49:43.589Z,243.95
2022-09-26T22:51:42.922Z,239.5
2022-09-26T22:53:43.244Z,0.65
2022-09-26T22:55:42.974Z,0.65
2022-09-26T22:57:42.843Z,0.65
2022-09-26T22:59:43.115Z,0.65
2022-09-26T23:01:46.723Z,0.65
2022-09-26T23:03:43.659Z,0.65
2022-09-26T23:05:43.599Z,0.65
2022-09-26T23:07:42.844Z,0.65
2022-09-26T23:09:43.419Z,0.65
2022-09-26T23:11:43.514Z,0.65
2022-09-26T23:13:42.992Z,0.65
2022-09-26T23:15:43.666Z,0.65
2022-09-26T23:17:43.164Z,0.65
2022-09-26T23:19:42.463Z,0.65
2022-09-26T23:21:43.435Z,0.65
2022-09-26T23:23:43.366Z,0.65
2022-09-26T23:25:42.648Z,0.65
2022-09-26T23:27:42.924Z,0.65
2022-09-26T23:29:42.759Z,0.65
2022-09-26T23:31:43.708Z,0.65
2022-09-26T23:33:43.237Z,0.65
2022-09-26T23:35:43.403Z,0.65
2022-09-26T23:37:43.011Z,0.65
2022-09-26T23:39:42.968Z,0.65
2022-09-26T23:41:43.730Z,0.65
2022-09-26T23:43:43.113Z,0.65
2022-09-26T23:45:42.747Z,0.65
2022-09-26T23:47:43.757Z,0.65
2022-09-26T23:49:43.559Z,0.65
2022-09-26T23:51:43.052Z,0.65
2022-09-26T23:53:43.043Z,0.65
2022-09-26T23:55:43.182Z,0.65
2022-09-26T23:57:42.736Z,0.65
2022-09-26T23:59:43.248Z,0.65
